Time;durP1;ratioP1;P1;durP2;ratioP2;P2;SDS_P1;SDS_P2;PMS_P1;PMS_P2;Temp;Humidity;BMP_temperature;BMP_pressure;BME280_temperature;BME280_humidity;BME280_pressure;Samples;Min_cycle;Max_cycle;Signal;HPM_P1;HPM_P2
2023/05/27 00:01:36;;;;;;;12.20;11.60;;;;;;;;;;5020923;28;20147;-64
2023/05/27 00:04:01;;;;;;;13.32;12.63;;;;;;;;;;5021012;28;20037;-63
2023/05/27 00:06:28;;;;;;;12.98;12.27;;;;;;;;;;5025203;28;20037;-63
2023/05/27 00:08:53;;;;;;;12.38;11.77;;;;;;;;;;5021244;28;20025;-63
2023/05/27 00:11:19;;;;;;;12.07;11.48;;;;;;;;;;5023324;28;20079;-63
2023/05/27 00:13:45;;;;;;;12.27;11.68;;;;;;;;;;5022228;28;20088;-64
2023/05/27 00:16:11;;;;;;;13.15;12.45;;;;;;;;;;5015354;28;20048;-64
2023/05/27 00:18:36;;;;;;;12.60;11.95;;;;;;;;;;5019313;28;20185;-65
2023/05/27 00:21:02;;;;;;;11.55;11.05;;;;;;;;;;5025418;28;20120;-64
2023/05/27 00:23:27;;;;;;;11.55;11.00;;;;;;;;;;5033205;28;20033;-64
2023/05/27 00:25:52;;;;;;;11.80;11.20;;;;;;;;;;5031364;28;20018;-63
2023/05/27 00:28:18;;;;;;;12.00;11.40;;;;;;;;;;5036374;28;20029;-63
2023/05/27 00:30:43;;;;;;;12.00;11.40;;;;;;;;;;5040771;28;20616;-63
2023/05/27 00:33:09;;;;;;;12.18;11.57;;;;;;;;;;5041305;28;20048;-63
2023/05/27 00:35:34;;;;;;;11.65;11.10;;;;;;;;;;5040666;28;20017;-63
2023/05/27 00:37:59;;;;;;;12.25;11.65;;;;;;;;;;5034780;28;20037;-64
2023/05/27 00:40:26;;;;;;;12.32;11.73;;;;;;;;;;5022702;28;20021;-63
2023/05/27 00:42:51;;;;;;;12.10;11.50;;;;;;;;;;5015237;28;20056;-63
2023/05/27 00:45:16;;;;;;;12.85;12.15;;;;;;;;;;5021634;28;20473;-64
2023/05/27 00:47:42;;;;;;;11.90;11.30;;;;;;;;;;5019797;28;20096;-63
2023/05/27 00:50:08;;;;;;;11.50;11.00;;;;;;;;;;5023550;28;20026;-64
2023/05/27 00:52:33;;;;;;;11.75;11.15;;;;;;;;;;5036766;28;20021;-63
2023/05/27 00:54:59;;;;;;;12.10;11.50;;;;;;;;;;5034455;28;20039;-63
2023/05/27 00:57:25;;;;;;;11.50;11.00;;;;;;;;;;5035504;28;20480;-64
2023/05/27 00:59:51;;;;;;;12.35;11.75;;;;;;;;;;5042800;28;20470;-63
2023/05/27 01:02:16;;;;;;;12.68;12.05;;;;;;;;;;5022468;28;20030;-64
2023/05/27 01:04:42;;;;;;;11.70;11.10;;;;;;;;;;5017208;28;20053;-63
2023/05/27 01:07:17;;;;;;;11.85;11.25;;;;;;;;;;5020999;28;20045;-63
2023/05/27 01:09:49;;;;;;;12.25;11.65;;;;;;;;;;5019860;28;20026;-64
2023/05/27 01:12:31;;;;;;;12.48;11.88;;;;;;;;;;5013969;28;20030;-64
2023/05/27 01:14:57;;;;;;;11.82;11.23;;;;;;;;;;5018408;28;20053;-64
2023/05/27 01:17:24;;;;;;;12.93;12.23;;;;;;;;;;5020074;28;20022;-65
2023/05/27 01:19:50;;;;;;;12.07;11.48;;;;;;;;;;5019155;28;20405;-64
2023/05/27 01:22:17;;;;;;;12.80;12.10;;;;;;;;;;5021787;28;20021;-65
2023/05/27 01:24:42;;;;;;;11.63;11.10;;;;;;;;;;5029318;28;20026;-65
2023/05/27 01:27:08;;;;;;;12.63;11.98;;;;;;;;;;5019412;28;20035;-64
2023/05/27 01:29:34;;;;;;;12.05;11.45;;;;;;;;;;5017563;28;20053;-65
2023/05/27 01:32:16;;;;;;;12.00;11.40;;;;;;;;;;5020771;28;20057;-64
2023/05/27 01:34:48;;;;;;;12.38;11.77;;;;;;;;;;5020808;28;20028;-64
2023/05/27 01:37:16;;;;;;;12.68;12.00;;;;;;;;;;5018246;28;20550;-64
2023/05/27 01:39:42;;;;;;;12.65;12.02;;;;;;;;;;5021107;28;20496;-64
2023/05/27 01:42:08;;;;;;;12.95;12.25;;;;;;;;;;5015731;28;20037;-64
2023/05/27 01:44:33;;;;;;;12.73;12.05;;;;;;;;;;5013074;28;20029;-64
2023/05/27 01:46:59;;;;;;;12.38;11.77;;;;;;;;;;5021612;28;20055;-64
2023/05/27 01:49:25;;;;;;;11.63;11.07;;;;;;;;;;5024971;28;20017;-63
2023/05/27 01:51:50;;;;;;;11.60;11.10;;;;;;;;;;5033412;28;20506;-64
2023/05/27 01:54:15;;;;;;;12.00;11.40;;;;;;;;;;5032926;28;20053;-63
2023/05/27 01:56:41;;;;;;;13.00;12.30;;;;;;;;;;5019617;28;20095;-65
2023/05/27 01:59:06;;;;;;;12.63;11.95;;;;;;;;;;5018787;28;20033;-64
2023/05/27 02:01:33;;;;;;;12.60;11.93;;;;;;;;;;5021376;28;20036;-64
2023/05/27 02:03:59;;;;;;;12.38;11.77;;;;;;;;;;5018927;28;20079;-64
2023/05/27 02:06:25;;;;;;;12.77;12.07;;;;;;;;;;5016962;28;20026;-64
2023/05/27 02:08:50;;;;;;;13.05;12.35;;;;;;;;;;5017956;28;20055;-64
2023/05/27 02:11:15;;;;;;;12.23;11.63;;;;;;;;;;5021213;28;20444;-64
2023/05/27 02:13:42;;;;;;;12.48;11.88;;;;;;;;;;5018647;28;20036;-65
2023/05/27 02:16:07;;;;;;;12.32;11.73;;;;;;;;;;5017828;28;20029;-64
2023/05/27 02:18:33;;;;;;;12.65;11.98;;;;;;;;;;5016855;28;20025;-65
2023/05/27 02:21:05;;;;;;;12.68;12.05;;;;;;;;;;5018712;28;20033;-64
2023/05/27 02:23:30;;;;;;;12.80;12.13;;;;;;;;;;5022266;28;21874;-64
2023/05/27 02:25:55;;;;;;;12.57;11.98;;;;;;;;;;5025109;28;20037;-65
2023/05/27 02:28:21;;;;;;;13.15;12.45;;;;;;;;;;5015438;28;20023;-64
2023/05/27 02:30:46;;;;;;;12.45;11.85;;;;;;;;;;5020110;28;20101;-65
2023/05/27 02:33:11;;;;;;;13.23;12.52;;;;;;;;;;5018352;28;20018;-64
2023/05/27 02:35:36;;;;;;;12.65;12.00;;;;;;;;;;5016457;28;20390;-63
2023/05/27 02:38:02;;;;;;;12.60;12.00;;;;;;;;;;5017851;28;20033;-63
2023/05/27 02:40:27;;;;;;;11.82;11.30;;;;;;;;;;5025282;28;20026;-63
2023/05/27 02:42:53;;;;;;;12.50;11.90;;;;;;;;;;5020921;28;20014;-64
2023/05/27 02:45:18;;;;;;;12.52;11.93;;;;;;;;;;5018016;28;20417;-64
2023/05/27 02:47:44;;;;;;;12.18;11.57;;;;;;;;;;5018714;28;20420;-64
2023/05/27 02:50:10;;;;;;;12.55;11.95;;;;;;;;;;5016757;28;20026;-65
2023/05/27 02:52:35;;;;;;;12.07;11.48;;;;;;;;;;5014661;28;20110;-64
2023/05/27 02:55:00;;;;;;;13.00;12.30;;;;;;;;;;5017254;28;20037;-64
2023/05/27 02:57:26;;;;;;;13.18;12.48;;;;;;;;;;5020970;28;20042;-64
2023/05/27 02:59:51;;;;;;;12.65;12.05;;;;;;;;;;5015431;28;20082;-64
2023/05/27 03:02:16;;;;;;;12.38;11.77;;;;;;;;;;5015557;28;20488;-65
2023/05/27 03:04:42;;;;;;;12.57;11.98;;;;;;;;;;5020274;28;20460;-64
2023/05/27 03:07:07;;;;;;;12.73;12.10;;;;;;;;;;5019277;28;20029;-64
2023/05/27 03:09:33;;;;;;;12.40;11.80;;;;;;;;;;5018889;28;20548;-65
2023/05/27 03:11:58;;;;;;;12.13;11.52;;;;;;;;;;5022823;28;20029;-64
2023/05/27 03:14:23;;;;;;;12.07;11.48;;;;;;;;;;5019032;28;20024;-64
2023/05/27 03:16:48;;;;;;;12.05;11.45;;;;;;;;;;5022296;28;20033;-65
2023/05/27 03:19:14;;;;;;;12.10;11.50;;;;;;;;;;5027480;28;20988;-65
2023/05/27 03:21:40;;;;;;;12.30;11.70;;;;;;;;;;5024630;28;20120;-64
2023/05/27 03:24:05;;;;;;;12.13;11.52;;;;;;;;;;5028044;28;20021;-65
2023/05/27 03:26:30;;;;;;;12.75;12.15;;;;;;;;;;5026995;28;20489;-64
2023/05/27 03:28:56;;;;;;;12.63;12.02;;;;;;;;;;5024938;28;20034;-64
2023/05/27 03:31:21;;;;;;;12.50;11.90;;;;;;;;;;5021861;28;20030;-65
2023/05/27 03:33:47;;;;;;;12.70;12.10;;;;;;;;;;5020651;28;20730;-65
2023/05/27 03:36:12;;;;;;;12.50;11.90;;;;;;;;;;5020683;28;20033;-65
2023/05/27 03:38:37;;;;;;;12.30;11.70;;;;;;;;;;5021560;28;20029;-64
2023/05/27 03:41:02;;;;;;;12.57;11.98;;;;;;;;;;5021876;28;20026;-64
2023/05/27 03:43:28;;;;;;;12.20;11.60;;;;;;;;;;5022413;28;20029;-64
2023/05/27 03:45:53;;;;;;;12.77;12.18;;;;;;;;;;5024402;28;20104;-64
2023/05/27 03:48:18;;;;;;;12.52;11.93;;;;;;;;;;5028739;28;20572;-64
2023/05/27 03:50:44;;;;;;;12.18;11.60;;;;;;;;;;5033878;28;20039;-64
2023/05/27 03:53:09;;;;;;;12.20;11.65;;;;;;;;;;5038292;28;20112;-65
2023/05/27 03:55:35;;;;;;;12.85;12.25;;;;;;;;;;5032599;28;20079;-65
2023/05/27 03:58:00;;;;;;;11.85;11.35;;;;;;;;;;5032355;28;20092;-64
2023/05/27 04:00:26;;;;;;;12.60;12.00;;;;;;;;;;5028704;28;20029;-64
2023/05/27 04:02:52;;;;;;;12.00;11.50;;;;;;;;;;5027056;28;20018;-64
2023/05/27 04:05:18;;;;;;;12.45;11.85;;;;;;;;;;5030298;28;20752;-64
2023/05/27 04:07:43;;;;;;;11.73;11.23;;;;;;;;;;5026246;28;20105;-64
2023/05/27 04:10:08;;;;;;;12.07;11.52;;;;;;;;;;5020816;28;20409;-63
2023/05/27 04:12:34;;;;;;;12.38;11.77;;;;;;;;;;5026823;28;20778;-64
2023/05/27 04:14:59;;;;;;;12.50;11.90;;;;;;;;;;5029709;28;20029;-64
2023/05/27 04:17:24;;;;;;;12.40;11.80;;;;;;;;;;5021332;28;20109;-65
2023/05/27 04:19:50;;;;;;;12.00;11.50;;;;;;;;;;5030121;28;20088;-65
2023/05/27 04:22:15;;;;;;;12.10;11.60;;;;;;;;;;5039249;28;20439;-64
2023/05/27 04:24:40;;;;;;;12.27;11.70;;;;;;;;;;5029531;28;20286;-64
2023/05/27 04:27:06;;;;;;;13.00;12.40;;;;;;;;;;5030854;28;20026;-64
2023/05/27 04:29:32;;;;;;;12.00;11.50;;;;;;;;;;5025849;28;20108;-65
2023/05/27 04:31:58;;;;;;;11.70;11.20;;;;;;;;;;5027135;28;20370;-65
2023/05/27 04:34:23;;;;;;;12.20;11.70;;;;;;;;;;5028897;28;20033;-63
2023/05/27 04:36:49;;;;;;;11.80;11.30;;;;;;;;;;5031173;28;20021;-64
2023/05/27 04:39:17;;;;;;;13.05;12.45;;;;;;;;;;5029962;28;20082;-64
2023/05/27 04:41:43;;;;;;;11.77;11.27;;;;;;;;;;5024552;28;20032;-64
2023/05/27 04:44:09;;;;;;;12.77;12.18;;;;;;;;;;5019673;28;20037;-65
2023/05/27 04:46:34;;;;;;;11.95;11.45;;;;;;;;;;5028061;28;20060;-65
2023/05/27 04:49:00;;;;;;;12.13;11.63;;;;;;;;;;5028564;28;20465;-64
2023/05/27 04:51:25;;;;;;;11.68;11.18;;;;;;;;;;5029694;28;20041;-64
2023/05/27 04:53:51;;;;;;;12.32;11.80;;;;;;;;;;5027152;28;20089;-64
2023/05/27 04:56:17;;;;;;;12.00;11.50;;;;;;;;;;5026236;28;20029;-65
2023/05/27 04:58:48;;;;;;;12.02;11.52;;;;;;;;;;5027551;28;20108;-64
2023/05/27 05:01:17;;;;;;;11.77;11.27;;;;;;;;;;5028023;28;20029;-65
2023/05/27 05:03:51;;;;;;;11.90;11.40;;;;;;;;;;5029951;28;20539;-64
2023/05/27 05:06:17;;;;;;;11.52;11.02;;;;;;;;;;5029764;28;20402;-65
2023/05/27 05:08:43;;;;;;;11.68;11.18;;;;;;;;;;5029101;28;20013;-65
2023/05/27 05:11:08;;;;;;;11.70;11.20;;;;;;;;;;5042056;28;20033;-64
2023/05/27 05:13:33;;;;;;;12.57;11.97;;;;;;;;;;5022769;28;20777;-63
2023/05/27 05:15:58;;;;;;;12.20;11.70;;;;;;;;;;5026728;28;20271;-64
2023/05/27 05:18:24;;;;;;;11.93;11.43;;;;;;;;;;5022828;28;20485;-64
2023/05/27 05:20:49;;;;;;;12.10;11.60;;;;;;;;;;5023667;28;20290;-64
2023/05/27 05:23:15;;;;;;;12.17;11.67;;;;;;;;;;5021887;28;20266;-63
2023/05/27 05:25:40;;;;;;;12.65;12.05;;;;;;;;;;5028367;28;20270;-63
2023/05/27 05:28:06;;;;;;;12.05;11.55;;;;;;;;;;5026490;28;20703;-63
2023/05/27 05:30:31;;;;;;;12.02;11.52;;;;;;;;;;5024451;28;20060;-63
2023/05/27 05:32:57;;;;;;;11.90;11.40;;;;;;;;;;5021460;28;20025;-64
2023/05/27 05:35:22;;;;;;;12.30;11.77;;;;;;;;;;5021414;28;20080;-63
2023/05/27 05:37:49;;;;;;;12.30;11.80;;;;;;;;;;5017594;28;20393;-65
2023/05/27 05:40:14;;;;;;;12.10;11.60;;;;;;;;;;5021614;28;20471;-65
2023/05/27 05:42:40;;;;;;;12.00;11.50;;;;;;;;;;5029415;28;20152;-65
2023/05/27 05:45:06;;;;;;;12.13;11.63;;;;;;;;;;5035376;28;20052;-65
2023/05/27 05:47:31;;;;;;;12.15;11.65;;;;;;;;;;5024716;28;20024;-65
2023/05/27 05:49:57;;;;;;;12.43;11.90;;;;;;;;;;5033348;28;20017;-64
2023/05/27 05:52:22;;;;;;;12.13;11.63;;;;;;;;;;5027817;28;20445;-65
2023/05/27 05:54:47;;;;;;;12.20;11.70;;;;;;;;;;5037067;28;20451;-65
2023/05/27 05:57:13;;;;;;;12.13;11.63;;;;;;;;;;5021817;28;20428;-64
2023/05/27 05:59:38;;;;;;;11.90;11.40;;;;;;;;;;5021312;28;20499;-65
2023/05/27 06:02:03;;;;;;;11.97;11.47;;;;;;;;;;5021213;28;20045;-65
2023/05/27 06:04:29;;;;;;;11.98;11.48;;;;;;;;;;5020808;28;20328;-65
2023/05/27 06:06:54;;;;;;;11.77;11.27;;;;;;;;;;5021910;28;20032;-65
2023/05/27 06:09:19;;;;;;;12.30;11.75;;;;;;;;;;5021480;28;20894;-64
2023/05/27 06:11:45;;;;;;;12.20;11.70;;;;;;;;;;5022370;28;20022;-65
2023/05/27 06:14:10;;;;;;;12.57;11.97;;;;;;;;;;5021266;28;20476;-68
2023/05/27 06:16:36;;;;;;;12.10;11.60;;;;;;;;;;5056790;28;20036;-65
2023/05/27 06:19:01;;;;;;;12.80;12.20;;;;;;;;;;5027878;28;20093;-65
2023/05/27 06:21:27;;;;;;;11.93;11.43;;;;;;;;;;5032735;28;20035;-65
2023/05/27 06:23:52;;;;;;;11.63;11.13;;;;;;;;;;5027475;28;20482;-65
2023/05/27 06:26:17;;;;;;;12.18;11.65;;;;;;;;;;5024802;28;20028;-65
2023/05/27 06:28:43;;;;;;;12.37;11.80;;;;;;;;;;5025697;28;20028;-65
2023/05/27 06:31:08;;;;;;;11.70;11.20;;;;;;;;;;5029278;28;20662;-65
2023/05/27 06:33:33;;;;;;;12.50;11.90;;;;;;;;;;5023731;28;20075;-65
2023/05/27 06:35:59;;;;;;;12.05;11.55;;;;;;;;;;5026974;28;20112;-66
2023/05/27 06:38:24;;;;;;;11.97;11.47;;;;;;;;;;5026332;28;21925;-66
2023/05/27 06:40:50;;;;;;;11.73;11.23;;;;;;;;;;5028795;28;20278;-66
2023/05/27 06:43:15;;;;;;;12.55;11.95;;;;;;;;;;5031371;28;20009;-65
2023/05/27 06:45:40;;;;;;;11.90;11.40;;;;;;;;;;5023816;28;20021;-66
2023/05/27 06:48:07;;;;;;;12.40;11.80;;;;;;;;;;5026489;28;20756;-65
2023/05/27 06:50:32;;;;;;;12.07;11.57;;;;;;;;;;5026531;28;20286;-66
2023/05/27 06:52:58;;;;;;;11.63;11.13;;;;;;;;;;5021798;28;20030;-64
2023/05/27 06:55:23;;;;;;;11.95;11.45;;;;;;;;;;5029911;28;20075;-64
2023/05/27 06:57:48;;;;;;;11.95;11.45;;;;;;;;;;5027297;28;20033;-65
2023/05/27 07:00:14;;;;;;;12.20;11.70;;;;;;;;;;5021500;28;20049;-66
2023/05/27 07:02:39;;;;;;;11.45;10.95;;;;;;;;;;5023080;28;20021;-66
2023/05/27 07:05:05;;;;;;;11.68;11.18;;;;;;;;;;5028277;28;20049;-66
2023/05/27 07:07:31;;;;;;;11.85;11.35;;;;;;;;;;5023888;28;20061;-66
2023/05/27 07:09:57;;;;;;;12.03;11.53;;;;;;;;;;5026973;28;20030;-66
2023/05/27 07:12:23;;;;;;;12.10;11.60;;;;;;;;;;5026590;28;20589;-66
2023/05/27 07:14:48;;;;;;;12.15;11.65;;;;;;;;;;5019569;28;20635;-66
2023/05/27 07:17:14;;;;;;;11.90;11.40;;;;;;;;;;5019344;28;20023;-66
2023/05/27 07:19:39;;;;;;;12.20;11.70;;;;;;;;;;5026869;28;20441;-66
2023/05/27 07:22:05;;;;;;;12.05;11.55;;;;;;;;;;5026836;28;20033;-66
2023/05/27 07:24:32;;;;;;;11.60;11.10;;;;;;;;;;5022596;28;20057;-66
2023/05/27 07:26:57;;;;;;;11.88;11.38;;;;;;;;;;5024892;28;20017;-66
2023/05/27 07:29:22;;;;;;;11.93;11.43;;;;;;;;;;5025800;28;20101;-66
2023/05/27 07:31:48;;;;;;;11.80;11.30;;;;;;;;;;5022664;28;20340;-67
2023/05/27 07:34:13;;;;;;;11.60;11.10;;;;;;;;;;5023189;28;20038;-66
2023/05/27 07:36:38;;;;;;;11.80;11.30;;;;;;;;;;5019179;28;21123;-65
2023/05/27 07:39:04;;;;;;;11.83;11.33;;;;;;;;;;5014876;28;20072;-66
2023/05/27 07:41:29;;;;;;;12.45;11.93;;;;;;;;;;5027509;28;20645;-67
2023/05/27 07:43:55;;;;;;;12.15;11.65;;;;;;;;;;5019412;28;20230;-67
2023/05/27 07:46:20;;;;;;;12.52;11.93;;;;;;;;;;5021560;28;20017;-66
2023/05/27 07:48:45;;;;;;;12.27;11.70;;;;;;;;;;5056786;28;20025;-66
2023/05/27 07:51:11;;;;;;;12.40;11.80;;;;;;;;;;5025081;28;20669;-66
2023/05/27 07:53:36;;;;;;;13.07;12.48;;;;;;;;;;5027565;28;20147;-66
2023/05/27 07:56:01;;;;;;;12.33;11.73;;;;;;;;;;5028116;28;20106;-66
2023/05/27 07:58:26;;;;;;;12.50;11.90;;;;;;;;;;5033907;28;20343;-66
2023/05/27 08:00:52;;;;;;;12.57;11.97;;;;;;;;;;5034475;28;20304;-66
2023/05/27 08:03:17;;;;;;;12.50;11.90;;;;;;;;;;5024376;28;20286;-65
2023/05/27 08:05:42;;;;;;;12.47;11.87;;;;;;;;;;5028923;28;20050;-66
2023/05/27 08:08:08;;;;;;;12.55;11.95;;;;;;;;;;5028636;28;20282;-64
2023/05/27 08:10:33;;;;;;;12.15;11.63;;;;;;;;;;5028573;28;20033;-64
2023/05/27 08:12:58;;;;;;;12.53;11.93;;;;;;;;;;5029625;28;20026;-66
2023/05/27 08:15:24;;;;;;;11.80;11.30;;;;;;;;;;5031795;28;20349;-65
2023/05/27 08:17:50;;;;;;;13.82;13.13;;;;;;;;;;5027835;28;20029;-65
2023/05/27 08:20:15;;;;;;;12.20;11.63;;;;;;;;;;5027601;28;20026;-65
2023/05/27 08:22:41;;;;;;;12.35;11.75;;;;;;;;;;5021876;28;20381;-65
2023/05/27 08:25:07;;;;;;;13.30;12.70;;;;;;;;;;5019517;28;20025;-68
2023/05/27 08:27:42;;;;;;;13.68;13.07;;;;;;;;;;5022863;28;20590;-68
2023/05/27 08:30:08;;;;;;;12.80;12.20;;;;;;;;;;5026966;28;20490;-69
2023/05/27 08:32:33;;;;;;;12.88;12.27;;;;;;;;;;5039709;28;20037;-70
2023/05/27 08:34:59;;;;;;;12.20;11.60;;;;;;;;;;5026756;28;20185;-66
2023/05/27 08:37:25;;;;;;;12.82;12.23;;;;;;;;;;5022824;28;20352;-69
2023/05/27 08:39:50;;;;;;;12.48;11.88;;;;;;;;;;5027528;28;20056;-67
2023/05/27 08:42:16;;;;;;;13.27;12.68;;;;;;;;;;5020691;28;20032;-70
2023/05/27 08:44:41;;;;;;;13.00;12.40;;;;;;;;;;5019142;28;20106;-69
2023/05/27 08:47:07;;;;;;;13.20;12.60;;;;;;;;;;5029535;28;20508;-68
2023/05/27 08:49:32;;;;;;;12.27;11.68;;;;;;;;;;5028144;28;20739;-70
2023/05/27 08:52:00;;;;;;;13.25;12.65;;;;;;;;;;5024740;28;20057;-69
2023/05/27 08:54:26;;;;;;;12.55;11.95;;;;;;;;;;5033047;28;20021;-67
2023/05/27 08:56:53;;;;;;;12.60;12.00;;;;;;;;;;5027756;28;20029;-68
2023/05/27 08:59:18;;;;;;;12.48;11.88;;;;;;;;;;5021005;28;20048;-69
2023/05/27 09:01:44;;;;;;;12.50;11.90;;;;;;;;;;5024117;28;20029;-71
2023/05/27 09:04:10;;;;;;;13.23;12.63;;;;;;;;;;5021102;28;20121;-70
2023/05/27 09:06:35;;;;;;;13.20;12.60;;;;;;;;;;5025179;28;20027;-67
2023/05/27 09:09:00;;;;;;;13.75;13.05;;;;;;;;;;5021293;28;20021;-66
2023/05/27 09:11:27;;;;;;;12.88;12.27;;;;;;;;;;5024194;28;20043;-67
2023/05/27 09:13:56;;;;;;;12.23;11.63;;;;;;;;;;5029845;28;20021;-67
2023/05/27 09:16:21;;;;;;;12.43;11.82;;;;;;;;;;5023879;28;20021;-67
2023/05/27 09:18:47;;;;;;;12.27;11.68;;;;;;;;;;5025706;28;20476;-68
2023/05/27 09:21:12;;;;;;;13.07;12.48;;;;;;;;;;5031705;28;20025;-68
2023/05/27 09:23:39;;;;;;;12.63;12.02;;;;;;;;;;5029202;28;20029;-67
2023/05/27 09:26:10;;;;;;;12.90;12.30;;;;;;;;;;5021054;28;20030;-69
2023/05/27 09:28:36;;;;;;;12.73;12.13;;;;;;;;;;5021631;28;20017;-72
2023/05/27 09:31:04;;;;;;;14.57;13.88;;;;;;;;;;5022820;28;20026;-70
2023/05/27 09:33:39;;;;;;;12.55;11.95;;;;;;;;;;5020617;28;20021;-67
2023/05/27 09:36:05;;;;;;;12.40;11.80;;;;;;;;;;5027813;28;20025;-66
2023/05/27 09:38:30;;;;;;;12.93;12.32;;;;;;;;;;5024318;28;20041;-67
2023/05/27 09:40:59;;;;;;;12.98;12.38;;;;;;;;;;5017816;28;20026;-67
2023/05/27 09:43:28;;;;;;;12.70;12.10;;;;;;;;;;5024222;28;20052;-67
2023/05/27 09:46:03;;;;;;;12.93;12.32;;;;;;;;;;5022692;28;20025;-65
2023/05/27 09:48:31;;;;;;;12.45;11.85;;;;;;;;;;5027061;28;20974;-67
2023/05/27 09:50:57;;;;;;;13.05;12.45;;;;;;;;;;5014978;28;20107;-69
2023/05/27 09:53:23;;;;;;;12.43;11.82;;;;;;;;;;5031402;28;20485;-69
2023/05/27 09:55:49;;;;;;;12.38;11.77;;;;;;;;;;5030506;28;20072;-69
2023/05/27 09:58:15;;;;;;;12.27;11.68;;;;;;;;;;5020820;28;20053;-70
2023/05/27 10:00:41;;;;;;;12.95;12.35;;;;;;;;;;5028955;28;20025;-67
2023/05/27 10:03:07;;;;;;;13.05;12.45;;;;;;;;;;5022068;28;20032;-68
2023/05/27 10:05:33;;;;;;;14.65;13.95;;;;;;;;;;5026946;28;20083;-68
2023/05/27 10:07:58;;;;;;;12.70;12.10;;;;;;;;;;5021911;28;20018;-69
2023/05/27 10:10:24;;;;;;;13.52;12.90;;;;;;;;;;5027464;28;20037;-67
2023/05/27 10:12:51;;;;;;;12.48;11.88;;;;;;;;;;5025187;28;20076;-66
2023/05/27 10:15:22;;;;;;;13.07;12.48;;;;;;;;;;5025039;28;20064;-66
2023/05/27 10:17:48;;;;;;;12.65;12.05;;;;;;;;;;5023079;28;20037;-68
2023/05/27 10:20:32;;;;;;;12.90;12.30;;;;;;;;;;5023496;28;20051;-69
2023/05/27 10:23:18;;;;;;;12.38;11.77;;;;;;;;;;5027904;28;20025;-68
2023/05/27 10:25:49;;;;;;;11.80;11.30;;;;;;;;;;5025199;28;20120;-69
2023/05/27 10:28:28;;;;;;;12.85;12.25;;;;;;;;;;5023736;28;20108;-69
2023/05/27 10:31:02;;;;;;;12.85;12.25;;;;;;;;;;5027174;28;20031;-68
2023/05/27 10:33:27;;;;;;;;;;;;;;;;;;5019904;28;20045;-68
2023/05/27 10:35:52;;;;;;;12.27;11.67;;;;;;;;;;5024279;28;19952;-69
2023/05/27 10:38:18;;;;;;;12.45;11.85;;;;;;;;;;5018658;28;20080;-69
2023/05/27 10:40:50;;;;;;;12.38;11.77;;;;;;;;;;5026589;28;20558;-67
2023/05/27 10:43:16;;;;;;;12.90;12.30;;;;;;;;;;5028044;28;20496;-68
2023/05/27 10:45:41;;;;;;;12.75;12.15;;;;;;;;;;5023695;28;20484;-64
2023/05/27 10:48:28;;;;;;;11.95;11.45;;;;;;;;;;5024515;28;20079;-65
2023/05/27 10:50:56;;;;;;;12.23;11.63;;;;;;;;;;5024736;28;20104;-65
2023/05/27 10:53:22;;;;;;;12.55;11.95;;;;;;;;;;5028516;28;20053;-66
2023/05/27 10:55:49;;;;;;;11.32;10.82;;;;;;;;;;5028142;28;20045;-66
2023/05/27 10:58:15;;;;;;;12.52;11.93;;;;;;;;;;5028385;28;20048;-65
2023/05/27 11:00:41;;;;;;;11.88;11.38;;;;;;;;;;5032854;28;20025;-65
2023/05/27 11:03:15;;;;;;;11.65;11.15;;;;;;;;;;5025004;28;20088;-64
2023/05/27 11:05:41;;;;;;;12.52;11.93;;;;;;;;;;5026218;28;20093;-65
2023/05/27 11:08:11;;;;;;;12.07;11.50;;;;;;;;;;5020080;28;20049;-64
2023/05/27 11:10:36;;;;;;;12.05;11.52;;;;;;;;;;5027572;28;20031;-66
2023/05/27 11:13:01;;;;;;;12.25;11.65;;;;;;;;;;5019983;28;20022;-66
2023/05/27 11:15:26;;;;;;;13.00;12.40;;;;;;;;;;5026979;28;20424;-63
2023/05/27 11:17:52;;;;;;;13.00;12.40;;;;;;;;;;5024895;28;20481;-64
2023/05/27 11:20:17;;;;;;;12.32;11.73;;;;;;;;;;5026227;28;20037;-65
2023/05/27 11:22:48;;;;;;;12.30;11.70;;;;;;;;;;5025529;28;20018;-66
2023/05/27 11:25:14;;;;;;;12.85;12.25;;;;;;;;;;5024550;28;20108;-66
2023/05/27 11:27:40;;;;;;;12.83;12.23;;;;;;;;;;5026876;28;20148;-65
2023/05/27 11:30:09;;;;;;;13.02;12.43;;;;;;;;;;5029065;28;20298;-64
2023/05/27 11:32:35;;;;;;;12.40;11.80;;;;;;;;;;5030518;28;20068;-66
2023/05/27 11:35:00;;;;;;;11.80;11.30;;;;;;;;;;5030732;28;20477;-66
2023/05/27 11:37:30;;;;;;;12.63;12.02;;;;;;;;;;5031319;28;20013;-65
2023/05/27 11:39:56;;;;;;;12.68;12.07;;;;;;;;;;5031319;28;20022;-65
2023/05/27 11:42:24;;;;;;;11.87;11.37;;;;;;;;;;5029818;28;20389;-65
2023/05/27 11:44:50;;;;;;;12.68;12.07;;;;;;;;;;5031624;28;20126;-64
2023/05/27 11:47:16;;;;;;;11.98;11.45;;;;;;;;;;5030653;28;20164;-66
2023/05/27 11:49:41;;;;;;;11.60;11.10;;;;;;;;;;5031222;28;20112;-65
2023/05/27 11:52:06;;;;;;;12.15;11.55;;;;;;;;;;5034644;28;20017;-65
2023/05/27 11:54:32;;;;;;;11.95;11.40;;;;;;;;;;5031206;28;20029;-64
2023/05/27 11:56:58;;;;;;;12.45;11.85;;;;;;;;;;5032089;28;20473;-67
2023/05/27 11:59:24;;;;;;;12.43;11.82;;;;;;;;;;5026544;28;20032;-64
2023/05/27 12:01:51;;;;;;;12.13;11.55;;;;;;;;;;5025057;28;20026;-65
2023/05/27 12:04:16;;;;;;;12.27;11.68;;;;;;;;;;5028751;28;20049;-65
2023/05/27 12:06:42;;;;;;;11.52;11.02;;;;;;;;;;5030279;28;20033;-65
2023/05/27 12:09:08;;;;;;;11.93;11.38;;;;;;;;;;5032086;28;20488;-65
2023/05/27 12:11:35;;;;;;;12.40;11.80;;;;;;;;;;5033932;28;20430;-65
2023/05/27 12:14:00;;;;;;;12.10;11.50;;;;;;;;;;5032142;28;20029;-66
2023/05/27 12:16:25;;;;;;;12.10;11.50;;;;;;;;;;5033694;28;20040;-64
2023/05/27 12:18:51;;;;;;;12.60;12.00;;;;;;;;;;5029801;28;20032;-65
2023/05/27 12:21:16;;;;;;;12.15;11.55;;;;;;;;;;5028918;28;20033;-65
2023/05/27 12:23:42;;;;;;;12.25;11.65;;;;;;;;;;5031547;28;20053;-63
2023/05/27 12:26:07;;;;;;;11.77;11.27;;;;;;;;;;5036158;28;20116;-64
2023/05/27 12:28:32;;;;;;;11.85;11.35;;;;;;;;;;5029935;28;20049;-65
2023/05/27 12:30:58;;;;;;;11.98;11.45;;;;;;;;;;5030383;28;20389;-63
2023/05/27 12:33:23;;;;;;;12.32;11.73;;;;;;;;;;5028971;28;20361;-64
2023/05/27 12:35:49;;;;;;;12.80;12.20;;;;;;;;;;5026791;28;20058;-64
2023/05/27 12:38:14;;;;;;;12.70;12.10;;;;;;;;;;5027009;28;20025;-63
2023/05/27 12:40:39;;;;;;;11.88;11.32;;;;;;;;;;5027573;28;20508;-67
2023/05/27 12:43:06;;;;;;;14.20;13.50;;;;;;;;;;5027565;28;20079;-66
2023/05/27 12:45:31;;;;;;;13.15;12.52;;;;;;;;;;5030204;28;20013;-66
2023/05/27 12:47:57;;;;;;;13.20;12.50;;;;;;;;;;5027414;28;20382;-65
2023/05/27 12:50:22;;;;;;;13.57;12.88;;;;;;;;;;5023732;28;20022;-63
2023/05/27 12:52:49;;;;;;;13.45;12.75;;;;;;;;;;5032261;28;20032;-63
2023/05/27 12:55:17;;;;;;;13.20;12.50;;;;;;;;;;5031144;28;20108;-64
2023/05/27 12:57:43;;;;;;;12.70;12.10;;;;;;;;;;5031161;28;21312;-63
2023/05/27 13:00:09;;;;;;;12.90;12.25;;;;;;;;;;5024068;28;20060;-64
2023/05/27 13:02:35;;;;;;;13.60;12.90;;;;;;;;;;5023718;28;20087;-65
2023/05/27 13:05:01;;;;;;;12.55;11.95;;;;;;;;;;5029541;28;20435;-63
2023/05/27 13:07:26;;;;;;;13.02;12.35;;;;;;;;;;5035732;28;20028;-63
2023/05/27 13:09:51;;;;;;;12.65;12.05;;;;;;;;;;5030461;28;20078;-63
2023/05/27 13:12:17;;;;;;;12.18;11.57;;;;;;;;;;5027894;28;20017;-64
2023/05/27 13:14:44;;;;;;;12.65;12.05;;;;;;;;;;5027796;28;20473;-64
2023/05/27 13:17:09;;;;;;;12.95;12.25;;;;;;;;;;5030886;28;20124;-64
2023/05/27 13:19:34;;;;;;;13.25;12.55;;;;;;;;;;5028458;28;20454;-63
2023/05/27 13:22:00;;;;;;;12.55;11.95;;;;;;;;;;5023245;28;20034;-64
2023/05/27 13:24:25;;;;;;;12.77;12.07;;;;;;;;;;5027385;28;20066;-64
2023/05/27 13:26:50;;;;;;;12.25;11.65;;;;;;;;;;5024686;28;20021;-63
2023/05/27 13:29:19;;;;;;;13.00;12.30;;;;;;;;;;5024670;28;20022;-63
2023/05/27 13:31:45;;;;;;;13.07;12.38;;;;;;;;;;5028675;28;20866;-65
2023/05/27 13:34:11;;;;;;;12.10;11.50;;;;;;;;;;5029565;28;20026;-65
2023/05/27 13:36:36;;;;;;;12.52;11.93;;;;;;;;;;5025905;28;20043;-66
2023/05/27 13:39:02;;;;;;;12.20;11.60;;;;;;;;;;5029776;28;20029;-66
2023/05/27 13:41:27;;;;;;;12.60;12.00;;;;;;;;;;5028269;28;20029;-65
2023/05/27 13:43:52;;;;;;;13.10;12.40;;;;;;;;;;5019241;28;20521;-66
2023/05/27 13:46:18;;;;;;;12.45;11.85;;;;;;;;;;5028954;28;20030;-67
2023/05/27 13:48:43;;;;;;;12.07;11.48;;;;;;;;;;5029419;28;20040;-66
2023/05/27 13:51:08;;;;;;;12.35;11.75;;;;;;;;;;5022341;28;20105;-64
2023/05/27 13:53:33;;;;;;;12.50;11.90;;;;;;;;;;5024812;28;20115;-65
2023/05/27 13:55:59;;;;;;;12.55;11.95;;;;;;;;;;5022246;28;20494;-65
2023/05/27 13:58:25;;;;;;;12.82;12.23;;;;;;;;;;5025777;28;20105;-64
2023/05/27 14:00:50;;;;;;;12.50;11.90;;;;;;;;;;5029713;28;20057;-65
2023/05/27 14:03:16;;;;;;;11.70;11.18;;;;;;;;;;5026646;28;20009;-66
2023/05/27 14:05:41;;;;;;;12.65;12.05;;;;;;;;;;5029600;28;20467;-65
2023/05/27 14:08:08;;;;;;;12.93;12.25;;;;;;;;;;5023526;28;20192;-65
2023/05/27 14:10:33;;;;;;;12.80;12.20;;;;;;;;;;5023308;28;20037;-68
2023/05/27 14:12:59;;;;;;;12.30;11.70;;;;;;;;;;5022283;28;20044;-68